createdAt,value
2019-05-07T00:02:09.607Z,7.58
2019-05-07T00:04:38.092Z,7.56
2019-05-07T00:07:07.505Z,7.54
2019-05-07T00:09:36.089Z,7.54
2019-05-07T00:12:05.299Z,7.54
2019-05-07T00:14:34.502Z,7.52
2019-05-07T00:17:04.623Z,7.50
2019-05-07T00:19:33.230Z,7.49
2019-05-07T00:22:02.402Z,7.49
2019-05-07T00:24:33.111Z,7.49
2019-05-07T00:27:02.848Z,7.49
2019-05-07T00:29:32.122Z,7.49
2019-05-07T00:32:02.947Z,7.48
2019-05-07T00:34:32.905Z,7.46
2019-05-07T00:37:03.054Z,7.44
2019-05-07T00:39:35.790Z,7.42
2019-05-07T00:42:05.962Z,7.39
2019-05-07T00:44:36.082Z,7.36
2019-05-07T00:47:04.612Z,7.33
2019-05-07T00:49:33.185Z,7.30
2019-05-07T00:52:02.838Z,7.28
2019-05-07T00:54:32.535Z,7.23
2019-05-07T00:57:03.086Z,7.18
2019-05-07T00:59:32.250Z,7.15
2019-05-07T01:02:02.201Z,7.10
2019-05-07T01:04:33.146Z,7.04
2019-05-07T01:07:02.757Z,6.99
2019-05-07T01:09:32.356Z,6.92
2019-05-07T01:12:03.053Z,6.86
2019-05-07T01:14:32.548Z,6.81
2019-05-07T01:17:02.383Z,6.76
2019-05-07T01:19:32.871Z,6.71
2019-05-07T01:22:03.220Z,6.64
2019-05-07T01:24:32.185Z,6.59
2019-05-07T01:27:02.165Z,6.53
2019-05-07T01:29:32.861Z,6.46
2019-05-07T01:32:12.701Z,6.25
2019-05-07T01:34:58.085Z,6.37
2019-05-07T01:37:26.613Z,6.32
2019-05-07T01:39:55.082Z,6.16
2019-05-07T01:42:23.558Z,6.13
2019-05-07T01:44:52.828Z,6.13
2019-05-07T01:47:23.739Z,6.13
2019-05-07T01:49:52.389Z,6.03
2019-05-07T01:52:22.683Z,5.99
2019-05-07T01:54:52.225Z,5.99
2019-05-07T01:57:22.962Z,5.90
2019-05-07T01:59:52.752Z,5.90
2019-05-07T02:02:23.151Z,5.82
2019-05-07T02:04:56.875Z,5.77
2019-05-07T02:07:33.470Z,5.74
2019-05-07T02:10:13.200Z,5.67
2019-05-07T02:12:42.556Z,5.62
2019-05-07T02:15:12.003Z,5.62
2019-05-07T02:17:42.843Z,5.52
2019-05-07T02:20:12.929Z,5.52
2019-05-07T02:22:42.721Z,5.47
2019-05-07T02:25:12.658Z,5.41
2019-05-07T02:27:42.121Z,5.38
2019-05-07T02:30:14.401Z,5.31
2019-05-07T02:32:43.353Z,5.31
2019-05-07T02:35:13.497Z,5.27
2019-05-07T02:37:51.336Z,5.24
2019-05-07T02:40:15.568Z,5.19
2019-05-07T02:42:44.445Z,5.16
2019-05-07T02:45:24.205Z,5.12
2019-05-07T02:47:52.855Z,5.09
2019-05-07T02:50:28.509Z,5.05
2019-05-07T02:53:04.201Z,5.02
2019-05-07T02:55:33.864Z,4.98
2019-05-07T02:58:03.584Z,4.96
2019-05-07T03:00:33.338Z,4.93
2019-05-07T03:03:04.075Z,4.90
2019-05-07T03:05:35.116Z,4.89
2019-05-07T03:08:04.098Z,4.87
2019-05-07T03:10:34.080Z,4.82
2019-05-07T03:13:03.469Z,4.82
2019-05-07T03:15:33.421Z,4.80
2019-05-07T03:18:03.457Z,4.78
2019-05-07T03:20:53.521Z,4.75
2019-05-07T03:23:23.022Z,4.73
2019-05-07T03:25:54.241Z,4.71
2019-05-07T03:28:24.530Z,4.70
2019-05-07T03:30:57.761Z,4.67
2019-05-07T03:33:47.543Z,4.63
2019-05-07T03:36:17.510Z,4.62
2019-05-07T03:38:46.373Z,4.60
2019-05-07T03:41:14.860Z,4.59
2019-05-07T03:43:43.849Z,4.59
2019-05-07T03:46:14.434Z,4.58
2019-05-07T03:48:44.365Z,4.57
2019-05-07T03:51:13.353Z,4.56
2019-05-07T03:53:43.655Z,4.56
2019-05-07T03:56:13.049Z,4.57
2019-05-07T03:58:43.216Z,4.57
2019-05-07T04:01:13.257Z,4.65
2019-05-07T04:03:44.560Z,4.68
2019-05-07T04:06:14.275Z,4.70
2019-05-07T04:08:43.498Z,4.84
2019-05-07T04:11:13.772Z,5.01
2019-05-07T04:13:43.986Z,5.38
2019-05-07T04:16:13.529Z,5.38
2019-05-07T04:18:43.743Z,5.56
2019-05-07T04:21:13.981Z,5.63
2019-05-07T04:23:43.759Z,5.77
2019-05-07T04:26:17.060Z,5.82
2019-05-07T04:29:05.749Z,5.87
2019-05-07T04:31:34.539Z,5.89
2019-05-07T04:34:04.829Z,5.87
2019-05-07T04:36:34.525Z,5.92
2019-05-07T04:39:03.385Z,5.93
2019-05-07T04:41:32.927Z,5.95
2019-05-07T04:44:03.877Z,5.98
2019-05-07T04:46:33.295Z,6.00
2019-05-07T04:49:03.619Z,6.02
2019-05-07T04:51:43.252Z,6.06
2019-05-07T04:54:13.282Z,6.13
2019-05-07T04:56:43.719Z,6.14
2019-05-07T04:59:13.185Z,6.20
2019-05-07T05:01:46.110Z,6.23
2019-05-07T05:04:25.186Z,6.27
2019-05-07T05:06:46.037Z,6.33
2019-05-07T05:09:14.608Z,6.38
2019-05-07T05:11:43.978Z,6.42
2019-05-07T05:14:13.706Z,6.47
2019-05-07T05:16:42.640Z,6.53
2019-05-07T05:19:12.594Z,6.57
2019-05-07T05:21:48.803Z,6.56
2019-05-07T05:24:19.052Z,6.70
2019-05-07T05:26:47.547Z,6.76
2019-05-07T05:29:16.472Z,6.82
2019-05-07T05:31:44.969Z,6.86
2019-05-07T05:34:13.465Z,6.90
2019-05-07T05:36:42.650Z,6.97
2019-05-07T05:39:13.115Z,7.02
2019-05-07T05:41:43.792Z,7.08
2019-05-07T05:44:20.070Z,7.14
2019-05-07T05:46:52.383Z,7.21
2019-05-07T05:49:20.325Z,7.30
2019-05-07T05:52:06.723Z,7.38
2019-05-07T05:54:36.863Z,7.46
2019-05-07T05:57:20.251Z,7.53
2019-05-07T05:59:56.265Z,7.61
2019-05-07T06:02:32.518Z,7.67
2019-05-07T06:05:05.170Z,7.74
2019-05-07T06:07:39.101Z,7.83
2019-05-07T06:10:12.865Z,7.92
2019-05-07T06:12:48.919Z,8.02
2019-05-07T06:15:19.235Z,8.14
2019-05-07T06:17:52.219Z,8.13
2019-05-07T06:20:39.357Z,8.39
2019-05-07T06:23:24.852Z,8.48
2019-05-07T06:25:55.059Z,8.57
2019-05-07T06:28:23.560Z,8.71
2019-05-07T06:30:52.884Z,8.82
2019-05-07T06:33:22.985Z,8.93
2019-05-07T06:35:52.112Z,9.01
2019-05-07T06:38:22.545Z,9.08
2019-05-07T06:41:08.620Z,9.16
2019-05-07T06:43:38.934Z,9.23
2019-05-07T06:46:07.606Z,9.30
2019-05-07T06:48:42.343Z,9.40
2019-05-07T06:51:06.472Z,9.46
2019-05-07T06:53:35.041Z,9.54
2019-05-07T06:56:04.861Z,9.62
2019-05-07T06:58:44.286Z,9.67
2019-05-07T07:01:32.340Z,9.68
2019-05-07T07:04:08.734Z,9.74
2019-05-07T07:06:48.051Z,9.81
2019-05-07T07:09:19.435Z,9.89
2019-05-07T07:11:53.124Z,9.99
2019-05-07T07:14:22.732Z,10.10
2019-05-07T07:16:52.681Z,10.08
2019-05-07T07:19:23.291Z,10.35
2019-05-07T07:21:52.757Z,10.40
2019-05-07T07:24:22.268Z,10.47
2019-05-07T07:26:52.800Z,10.51
2019-05-07T07:29:22.862Z,10.52
2019-05-07T07:31:55.727Z,10.54
2019-05-07T07:34:25.029Z,10.60
2019-05-07T07:37:05.513Z,10.66
2019-05-07T07:39:25.455Z,10.71
2019-05-07T07:41:55.638Z,10.77
2019-05-07T07:44:24.145Z,10.82
2019-05-07T07:46:53.226Z,10.81
2019-05-07T07:49:22.418Z,10.88
2019-05-07T07:51:52.610Z,10.94
2019-05-07T07:54:22.702Z,11.00
2019-05-07T07:57:07.878Z,11.09
2019-05-07T07:59:42.135Z,11.21
2019-05-07T08:02:22.938Z,11.31
2019-05-07T08:04:52.779Z,11.42
2019-05-07T08:07:22.821Z,11.56
2019-05-07T08:09:52.174Z,11.64
2019-05-07T08:12:22.164Z,11.71
2019-05-07T08:14:53.130Z,11.75
2019-05-07T08:17:22.394Z,11.79
2019-05-07T08:19:52.013Z,11.75
2019-05-07T08:22:22.801Z,11.80
2019-05-07T08:24:53.953Z,11.87
2019-05-07T08:27:24.179Z,11.84
2019-05-07T08:29:52.677Z,11.80
2019-05-07T08:32:27.114Z,11.73
2019-05-07T08:35:15.281Z,11.73
2019-05-07T08:37:44.928Z,11.62
2019-05-07T08:40:13.558Z,11.54
2019-05-07T08:42:45.171Z,11.42
2019-05-07T08:45:33.337Z,11.33
2019-05-07T08:48:03.596Z,11.26
2019-05-07T08:50:33.656Z,11.35
2019-05-07T08:53:02.768Z,11.33
2019-05-07T08:55:32.236Z,11.31
2019-05-07T08:58:02.340Z,11.35
2019-05-07T09:00:32.568Z,11.45
2019-05-07T09:03:01.697Z,11.58
2019-05-07T09:05:32.368Z,11.64
2019-05-07T09:08:02.275Z,11.77
2019-05-07T09:10:32.630Z,11.95
2019-05-07T09:13:02.924Z,12.07
2019-05-07T09:15:32.779Z,12.09
2019-05-07T09:18:03.075Z,12.15
2019-05-07T09:20:32.171Z,12.19
2019-05-07T09:23:02.133Z,12.27
2019-05-07T09:25:33.001Z,12.40
2019-05-07T09:28:11.928Z,12.43
2019-05-07T09:30:56.810Z,12.38
2019-05-07T09:33:27.356Z,12.39
2019-05-07T09:36:02.088Z,12.45
2019-05-07T09:38:32.781Z,12.49
2019-05-07T09:41:02.794Z,12.49
2019-05-07T09:43:32.451Z,12.44
2019-05-07T09:46:02.785Z,12.40
2019-05-07T09:48:36.775Z,12.42
2019-05-07T09:51:05.256Z,12.49
2019-05-07T09:53:34.882Z,12.63
2019-05-07T09:56:05.133Z,12.81
2019-05-07T09:58:38.803Z,13.06
2019-05-07T10:01:07.093Z,13.31
2019-05-07T10:03:35.954Z,13.49
2019-05-07T10:06:04.457Z,13.71
2019-05-07T10:08:33.583Z,13.87
2019-05-07T10:11:05.259Z,13.93
2019-05-07T10:13:52.394Z,13.93
2019-05-07T10:16:22.598Z,13.87
2019-05-07T10:18:52.050Z,13.73
2019-05-07T10:21:22.105Z,13.57
2019-05-07T10:23:52.166Z,13.51
2019-05-07T10:26:23.080Z,13.49
2019-05-07T10:28:52.906Z,13.54
2019-05-07T10:31:22.367Z,13.61
2019-05-07T10:33:52.390Z,13.65
2019-05-07T10:36:22.869Z,13.60
2019-05-07T10:38:53.222Z,13.59
2019-05-07T10:41:22.375Z,13.56
2019-05-07T10:43:51.972Z,13.50
2019-05-07T10:46:22.287Z,13.43
2019-05-07T10:48:53.593Z,13.38
2019-05-07T10:51:22.192Z,13.48
2019-05-07T10:53:51.787Z,13.68
2019-05-07T10:56:22.274Z,13.86
2019-05-07T10:58:52.200Z,13.98
2019-05-07T11:01:22.534Z,14.15
2019-05-07T11:03:51.733Z,14.35
2019-05-07T11:06:22.106Z,14.51
2019-05-07T11:08:52.880Z,14.58
2019-05-07T11:11:22.364Z,14.60
2019-05-07T11:13:55.854Z,14.62
2019-05-07T11:16:27.571Z,14.72
2019-05-07T11:18:56.098Z,14.83
2019-05-07T11:21:32.983Z,14.91
2019-05-07T11:24:03.206Z,14.95
2019-05-07T11:26:32.853Z,14.94
2019-05-07T11:29:04.692Z,14.89
2019-05-07T11:31:33.392Z,14.84
2019-05-07T11:34:02.822Z,14.78
2019-05-07T11:36:32.015Z,14.75
2019-05-07T11:39:01.851Z,14.82
2019-05-07T11:41:36.028Z,14.90
2019-05-07T11:44:06.212Z,14.94
2019-05-07T11:46:36.366Z,14.93
2019-05-07T11:49:07.102Z,14.86
2019-05-07T11:51:46.265Z,14.83
2019-05-07T11:54:15.879Z,14.85
2019-05-07T11:56:44.407Z,14.78
2019-05-07T11:59:13.642Z,14.83
2019-05-07T12:01:47.982Z,14.84
2019-05-07T12:04:16.756Z,14.78
2019-05-07T12:06:45.266Z,14.80
2019-05-07T12:09:13.867Z,14.85
2019-05-07T12:11:42.717Z,14.95
2019-05-07T12:14:12.354Z,15.07
2019-05-07T12:16:42.610Z,15.18
2019-05-07T12:19:12.667Z,15.24
2019-05-07T12:21:42.217Z,15.27
2019-05-07T12:24:12.938Z,15.34
2019-05-07T12:26:42.356Z,15.39
2019-05-07T12:29:11.831Z,15.44
2019-05-07T12:31:58.784Z,15.47
2019-05-07T12:34:31.912Z,15.53
2019-05-07T12:37:01.701Z,15.60
2019-05-07T12:39:31.867Z,15.75
2019-05-07T12:42:00.507Z,15.89
2019-05-07T12:44:29.128Z,15.89
2019-05-07T12:46:58.004Z,15.87
2019-05-07T12:49:26.505Z,15.83
2019-05-07T12:52:02.386Z,15.78
2019-05-07T12:54:38.285Z,15.82
2019-05-07T12:57:06.843Z,15.82
2019-05-07T12:59:35.349Z,15.76
2019-05-07T13:02:21.448Z,15.68
2019-05-07T13:04:41.625Z,15.59
2019-05-07T13:07:17.262Z,15.53
2019-05-07T13:09:45.784Z,15.50
2019-05-07T13:12:14.275Z,15.50
2019-05-07T13:14:42.824Z,15.49
2019-05-07T13:17:12.075Z,15.49
2019-05-07T13:19:42.010Z,15.52
2019-05-07T13:22:12.428Z,15.61
2019-05-07T13:24:42.483Z,15.72
2019-05-07T13:27:11.186Z,15.82
2019-05-07T13:29:39.708Z,15.87
2019-05-07T13:32:09.508Z,15.81
2019-05-07T13:34:37.994Z,15.77
2019-05-07T13:37:12.712Z,15.72
2019-05-07T13:39:43.022Z,15.68
2019-05-07T13:42:33.384Z,15.61
2019-05-07T13:45:03.952Z,15.52
2019-05-07T13:47:35.453Z,15.42
2019-05-07T13:50:06.922Z,15.33
2019-05-07T13:52:36.957Z,15.23
2019-05-07T13:55:08.541Z,15.15
2019-05-07T13:57:37.026Z,15.12
2019-05-07T14:00:08.188Z,15.12
2019-05-07T14:02:36.858Z,15.11
2019-05-07T14:05:08.041Z,15.10
2019-05-07T14:07:38.168Z,15.06
2019-05-07T14:10:07.842Z,14.99
2019-05-07T14:12:38.261Z,14.94
2019-05-07T14:15:07.592Z,14.93
2019-05-07T14:17:38.972Z,14.91
2019-05-07T14:20:09.237Z,14.88
2019-05-07T14:22:37.713Z,14.96
2019-05-07T14:25:07.225Z,15.03
2019-05-07T14:27:37.067Z,15.08
2019-05-07T14:30:07.685Z,15.08
2019-05-07T14:32:37.930Z,15.15
2019-05-07T14:35:13.227Z,15.24
2019-05-07T14:37:46.280Z,15.28
2019-05-07T14:40:15.182Z,15.26
2019-05-07T14:42:45.403Z,15.23
2019-05-07T14:45:14.315Z,15.22
2019-05-07T14:47:44.930Z,15.18
2019-05-07T14:50:14.688Z,15.12
2019-05-07T14:52:44.614Z,15.06
2019-05-07T14:55:15.210Z,15.03
2019-05-07T14:57:44.710Z,15.07
2019-05-07T15:00:13.877Z,15.17
2019-05-07T15:02:42.458Z,15.21
2019-05-07T15:05:12.502Z,15.18
2019-05-07T15:07:44.122Z,15.14
2019-05-07T15:10:16.290Z,15.15
2019-05-07T15:12:52.225Z,15.13
2019-05-07T15:15:22.080Z,15.09
2019-05-07T15:17:59.719Z,15.05
2019-05-07T15:20:28.624Z,15.10
2019-05-07T15:23:02.704Z,15.17
2019-05-07T15:25:33.967Z,15.23
2019-05-07T15:28:05.426Z,15.23
2019-05-07T15:30:41.757Z,15.18
2019-05-07T15:33:12.748Z,15.11
2019-05-07T15:35:44.046Z,15.05
2019-05-07T15:38:15.764Z,15.10
2019-05-07T15:40:44.335Z,15.13
2019-05-07T15:43:13.043Z,15.12
2019-05-07T15:45:43.411Z,15.09
2019-05-07T15:48:12.707Z,15.04
2019-05-07T15:50:42.932Z,14.97
2019-05-07T15:53:19.496Z,14.91
2019-05-07T15:55:52.307Z,14.84
2019-05-07T15:58:25.062Z,14.73
2019-05-07T16:00:56.085Z,14.62
2019-05-07T16:03:39.518Z,14.53
2019-05-07T16:06:12.763Z,14.44
2019-05-07T16:08:49.017Z,14.38
2019-05-07T16:11:15.976Z,14.33
2019-05-07T16:14:03.036Z,14.28
2019-05-07T16:16:36.533Z,14.25
2019-05-07T16:19:07.309Z,14.22
2019-05-07T16:21:37.397Z,14.21
2019-05-07T16:24:05.962Z,14.20
2019-05-07T16:26:43.039Z,14.22
2019-05-07T16:29:13.225Z,14.23
2019-05-07T16:31:44.404Z,14.24
2019-05-07T16:34:14.577Z,14.26
2019-05-07T16:36:43.137Z,14.29
2019-05-07T16:39:13.329Z,14.32
2019-05-07T16:41:43.424Z,14.32
2019-05-07T16:44:12.403Z,14.31
2019-05-07T16:46:46.101Z,14.30
2019-05-07T16:49:22.287Z,14.31
2019-05-07T16:51:52.468Z,14.32
2019-05-07T16:54:20.793Z,14.34
2019-05-07T16:56:56.692Z,14.36
2019-05-07T16:59:25.172Z,14.38
2019-05-07T17:01:53.659Z,14.38
2019-05-07T17:04:22.778Z,14.38
2019-05-07T17:06:52.201Z,14.37
2019-05-07T17:09:22.305Z,14.32
2019-05-07T17:11:52.722Z,14.26
2019-05-07T17:14:21.293Z,14.21
2019-05-07T17:16:51.591Z,14.16
2019-05-07T17:19:20.016Z,14.11
2019-05-07T17:21:48.496Z,14.09
2019-05-07T17:24:17.419Z,14.08
2019-05-07T17:26:45.943Z,14.05
2019-05-07T17:29:14.418Z,14.02
2019-05-07T17:31:42.917Z,14.01
2019-05-07T17:34:11.884Z,14.01
2019-05-07T17:36:42.178Z,14.01
2019-05-07T17:39:12.208Z,13.98
2019-05-07T17:41:42.906Z,13.93
2019-05-07T17:44:11.915Z,13.86
2019-05-07T17:46:42.683Z,13.77
2019-05-07T17:49:11.997Z,13.71
2019-05-07T17:51:46.593Z,13.65
2019-05-07T17:54:15.187Z,13.59
2019-05-07T17:56:44.074Z,13.54
2019-05-07T17:59:12.649Z,13.50
2019-05-07T18:01:45.290Z,13.47
2019-05-07T18:04:13.773Z,13.43
2019-05-07T18:06:42.789Z,13.38
2019-05-07T18:09:12.172Z,13.33
2019-05-07T18:11:42.723Z,13.27
2019-05-07T18:14:10.905Z,13.19
2019-05-07T18:16:59.441Z,13.11
2019-05-07T18:19:29.583Z,13.02
2019-05-07T18:21:58.103Z,12.91
2019-05-07T18:24:26.638Z,12.81
2019-05-07T18:26:55.407Z,12.73
2019-05-07T18:29:23.880Z,12.65
2019-05-07T18:31:56.742Z,12.58
2019-05-07T18:34:25.229Z,12.50
2019-05-07T18:36:53.791Z,12.41
2019-05-07T18:39:22.316Z,12.36
2019-05-07T18:41:52.306Z,12.31
2019-05-07T18:44:22.302Z,12.28
2019-05-07T18:46:53.002Z,12.24
2019-05-07T18:49:26.288Z,12.21
2019-05-07T18:51:54.768Z,12.17
2019-05-07T18:54:30.574Z,12.14
2019-05-07T18:56:53.481Z,12.14
2019-05-07T18:59:23.699Z,12.13
2019-05-07T19:01:52.738Z,12.12
2019-05-07T19:04:21.952Z,12.10
2019-05-07T19:06:51.757Z,12.09
2019-05-07T19:09:22.506Z,12.05
2019-05-07T19:11:52.411Z,12.01
2019-05-07T19:14:22.651Z,11.97
2019-05-07T19:16:52.559Z,11.92
2019-05-07T19:19:22.149Z,11.86
2019-05-07T19:21:52.810Z,11.80
2019-05-07T19:24:23.121Z,11.75
2019-05-07T19:26:52.806Z,11.67
2019-05-07T19:29:23.335Z,11.60
2019-05-07T19:31:52.607Z,11.54
2019-05-07T19:34:21.800Z,11.48
2019-05-07T19:36:52.006Z,11.43
2019-05-07T19:39:23.172Z,11.42
2019-05-07T19:41:52.353Z,11.39
2019-05-07T19:44:21.035Z,11.35
2019-05-07T19:46:49.567Z,11.31
2019-05-07T19:49:18.062Z,11.29
2019-05-07T19:51:46.625Z,11.25
2019-05-07T19:54:18.334Z,11.21
2019-05-07T19:56:47.268Z,11.16
2019-05-07T19:59:15.956Z,11.13
2019-05-07T20:01:46.281Z,11.12
2019-05-07T20:04:15.569Z,11.11
2019-05-07T20:06:44.252Z,11.09
2019-05-07T20:09:15.677Z,11.23
2019-05-07T20:11:46.429Z,11.28
2019-05-07T20:14:16.661Z,11.25
2019-05-07T20:16:45.289Z,11.23
2019-05-07T20:19:15.909Z,11.18
2019-05-07T20:21:44.405Z,10.98
2019-05-07T20:24:12.979Z,11.14
2019-05-07T20:26:43.009Z,11.12
2019-05-07T20:29:12.394Z,11.09
2019-05-07T20:31:42.333Z,11.05
2019-05-07T20:34:13.125Z,11.00
2019-05-07T20:36:42.779Z,10.93
2019-05-07T20:39:12.813Z,10.85
2019-05-07T20:41:42.855Z,10.73
2019-05-07T20:44:12.082Z,10.63
2019-05-07T20:46:42.150Z,10.52
2019-05-07T20:49:12.874Z,10.42
2019-05-07T20:51:41.874Z,10.29
2019-05-07T20:54:24.691Z,10.17
2019-05-07T20:57:06.728Z,10.06
2019-05-07T20:59:35.318Z,9.93
2019-05-07T21:02:04.546Z,9.84
2019-05-07T21:04:33.212Z,9.76
2019-05-07T21:07:02.200Z,9.67
2019-05-07T21:09:32.876Z,9.60
2019-05-07T21:12:01.021Z,9.51
2019-05-07T21:14:29.706Z,9.43
2019-05-07T21:16:58.328Z,9.34
2019-05-07T21:19:26.893Z,9.27
2019-05-07T21:21:55.454Z,9.19
2019-05-07T21:24:23.995Z,9.12
2019-05-07T21:26:53.195Z,9.02
2019-05-07T21:29:24.598Z,8.94
2019-05-07T21:31:54.646Z,8.83
2019-05-07T21:34:24.214Z,8.73
2019-05-07T21:36:54.058Z,8.62
2019-05-07T21:39:23.702Z,8.51
2019-05-07T21:41:52.217Z,8.39
2019-05-07T21:44:25.299Z,8.30
2019-05-07T21:46:53.811Z,8.21
2019-05-07T21:49:23.539Z,8.17
2019-05-07T21:51:54.673Z,8.12
2019-05-07T21:54:24.906Z,8.05
2019-05-07T21:57:02.046Z,7.99
2019-05-07T21:59:43.202Z,7.90
2019-05-07T22:02:13.965Z,7.80
2019-05-07T22:04:42.451Z,7.69
2019-05-07T22:07:12.237Z,7.60
2019-05-07T22:09:40.877Z,7.49
2019-05-07T22:12:12.112Z,7.40
2019-05-07T22:14:40.598Z,7.31
2019-05-07T22:17:09.196Z,7.24
2019-05-07T22:19:37.675Z,7.17
2019-05-07T22:22:06.164Z,7.12
2019-05-07T22:24:34.933Z,7.06
2019-05-07T22:27:04.243Z,7.00
2019-05-07T22:29:32.887Z,6.92
2019-05-07T22:32:03.112Z,6.82
2019-05-07T22:34:36.143Z,6.73
2019-05-07T22:37:05.728Z,6.67
2019-05-07T22:39:34.224Z,6.60
2019-05-07T22:42:02.808Z,6.54
2019-05-07T22:44:32.426Z,6.48
2019-05-07T22:47:04.095Z,6.43
2019-05-07T22:49:33.323Z,6.39
2019-05-07T22:52:02.332Z,6.34
2019-05-07T22:54:32.746Z,6.28
2019-05-07T22:57:08.479Z,6.24
2019-05-07T22:59:36.985Z,6.20
2019-05-07T23:02:06.132Z,6.14
2019-05-07T23:04:34.596Z,6.02
2019-05-07T23:07:03.089Z,6.02
2019-05-07T23:09:33.259Z,5.88
2019-05-07T23:12:02.317Z,5.81
2019-05-07T23:14:32.988Z,5.78
2019-05-07T23:17:02.211Z,5.78
2019-05-07T23:19:32.644Z,5.61
2019-05-07T23:22:02.750Z,5.62
2019-05-07T23:24:31.917Z,5.62
2019-05-07T23:27:00.733Z,5.54
2019-05-07T23:29:29.243Z,5.53
2019-05-07T23:31:57.786Z,5.41
2019-05-07T23:34:27.464Z,5.41
2019-05-07T23:36:56.028Z,5.33
2019-05-07T23:39:26.572Z,5.33
2019-05-07T23:42:08.688Z,5.27
2019-05-07T23:44:37.299Z,5.20
2019-05-07T23:47:05.800Z,5.13
2019-05-07T23:49:34.385Z,5.07
2019-05-07T23:52:02.948Z,4.91
2019-05-07T23:54:32.001Z,4.91
2019-05-07T23:57:07.074Z,4.91
2019-05-07T23:59:32.839Z,4.86
